createdAt,value
2023-10-30T00:03:42.085Z,95205.84
2023-10-30T00:09:43.672Z,95197.16
2023-10-30T00:15:45.258Z,95209.75
2023-10-30T00:21:46.816Z,95211.50
2023-10-30T00:27:48.484Z,95211.03
2023-10-30T00:33:50.324Z,95201.41
2023-10-30T00:39:51.911Z,95212.97
2023-10-30T00:45:53.626Z,95202.31
2023-10-30T00:51:55.217Z,95193.38
2023-10-30T00:57:56.750Z,95218.69
2023-10-30T01:03:58.596Z,95213.19
2023-10-30T01:10:00.371Z,95221.31
2023-10-30T01:16:02.070Z,95206.44
2023-10-30T01:22:03.666Z,95212.00
2023-10-30T01:28:05.310Z,95214.59
2023-10-30T01:34:07.364Z,95209.66
2023-10-30T01:40:10.217Z,95208.34
2023-10-30T01:46:11.800Z,95205.50
2023-10-30T01:52:14.811Z,95205.31
2023-10-30T01:58:17.473Z,95215.25
2023-10-30T02:04:19.725Z,95208.81
2023-10-30T02:10:21.606Z,95213.41
2023-10-30T02:16:23.252Z,95207.19
2023-10-30T02:22:24.859Z,95192.09
2023-10-30T02:28:26.423Z,95180.63
2023-10-30T02:34:28.095Z,95202.06
2023-10-30T02:40:29.675Z,95202.38
2023-10-30T02:46:31.388Z,95196.53
2023-10-30T02:52:33.552Z,95198.38
2023-10-30T02:58:35.387Z,95221.34
2023-10-30T03:04:37.121Z,95233.97
2023-10-30T03:10:38.796Z,95220.94
2023-10-30T03:16:40.393Z,95216.63
2023-10-30T03:22:42.174Z,95214.69
2023-10-30T03:28:43.911Z,95211.19
2023-10-30T03:34:45.612Z,95229.78
2023-10-30T03:40:47.180Z,95220.44
2023-10-30T03:46:48.897Z,95226.47
2023-10-30T03:52:51.861Z,95232.31
2023-10-30T03:58:53.431Z,95241.34
2023-10-30T04:04:55.781Z,95238.16
2023-10-30T04:10:58.215Z,95246.50
2023-10-30T04:17:02.550Z,95232.81
2023-10-30T04:23:04.082Z,95232.63
2023-10-30T04:29:05.680Z,95216.53
2023-10-30T04:35:07.494Z,95203.50
2023-10-30T04:41:09.922Z,95211.69
2023-10-30T04:47:11.559Z,95199.59
2023-10-30T04:53:13.176Z,95192.09
2023-10-30T04:59:14.793Z,95181.81
2023-10-30T05:05:16.481Z,95176.69
2023-10-30T05:11:18.048Z,95167.88
2023-10-30T05:17:19.585Z,95162.00
2023-10-30T05:23:21.154Z,95164.44
2023-10-30T05:29:22.722Z,95161.69
2023-10-30T05:35:24.916Z,95152.47
2023-10-30T05:41:26.922Z,95161.88
2023-10-30T05:47:28.935Z,95172.16
2023-10-30T05:53:30.540Z,95175.16
2023-10-30T05:59:32.107Z,95174.84
2023-10-30T06:05:33.798Z,95176.69
2023-10-30T06:11:35.324Z,95191.88
2023-10-30T06:17:36.909Z,95190.03
2023-10-30T06:23:38.447Z,95189.84
2023-10-30T06:29:40.062Z,95183.06
2023-10-30T06:35:41.612Z,95184.50
2023-10-30T06:41:43.180Z,95189.06
2023-10-30T06:47:45.896Z,95197.72
2023-10-30T06:53:47.513Z,95184.63
2023-10-30T06:59:54.013Z,95176.25
2023-10-30T07:05:55.591Z,95181.13
2023-10-30T07:11:57.180Z,95182.66
2023-10-30T07:17:59.278Z,95182.97
2023-10-30T07:24:00.851Z,95178.97
2023-10-30T07:30:03.990Z,95167.53
2023-10-30T07:36:06.010Z,95140.28
2023-10-30T07:42:07.619Z,95141.38
2023-10-30T07:48:09.192Z,95141.84
2023-10-30T07:54:10.764Z,95147.16
2023-10-30T08:00:13.249Z,95130.22
2023-10-30T08:06:15.031Z,95109.22
2023-10-30T08:12:17.271Z,95095.41
2023-10-30T08:18:19.195Z,95095.69
2023-10-30T08:24:20.681Z,95095.16
2023-10-30T08:30:22.959Z,95097.53
2023-10-30T08:36:24.843Z,95091.97
2023-10-30T08:42:26.680Z,95104.16
2023-10-30T08:48:28.381Z,95091.72
2023-10-30T08:54:30.081Z,95083.47
2023-10-30T09:00:31.693Z,95071.50
2023-10-30T09:06:33.779Z,95061.25
2023-10-30T09:12:35.671Z,95057.88
2023-10-30T09:18:37.421Z,95057.84
2023-10-30T09:24:39.600Z,95037.63
2023-10-30T09:30:41.784Z,95019.38
2023-10-30T09:36:43.539Z,95013.16
2023-10-30T09:42:52.525Z,95016.81
2023-10-30T09:48:56.110Z,95011.34
2023-10-30T09:55:00.503Z,95013.25
2023-10-30T10:01:02.512Z,95002.38
2023-10-30T10:07:04.993Z,94980.50
2023-10-30T10:13:07.046Z,94962.06
2023-10-30T10:19:23.183Z,94939.50
2023-10-30T10:25:24.789Z,94935.59
2023-10-30T10:31:26.410Z,94921.41
2023-10-30T10:37:28.018Z,94936.00
2023-10-30T10:43:31.082Z,94919.97
2023-10-30T10:49:32.614Z,94913.66
2023-10-30T10:55:47.526Z,94927.09
2023-10-30T11:01:52.748Z,94910.63
2023-10-30T11:08:04.250Z,94899.47
2023-10-30T11:14:43.129Z,94887.41
2023-10-30T11:20:54.074Z,94880.56
2023-10-30T11:26:55.667Z,94860.94
2023-10-30T11:32:58.486Z,94839.88
2023-10-30T11:39:00.169Z,94818.72
2023-10-30T11:45:21.818Z,94810.75
2023-10-30T11:51:24.021Z,94809.75
2023-10-30T11:57:26.706Z,94803.25
2023-10-30T12:03:28.506Z,94791.59
2023-10-30T12:09:30.192Z,94785.09
2023-10-30T12:15:31.937Z,94779.63
2023-10-30T12:21:33.792Z,94776.28
2023-10-30T12:27:35.809Z,94771.31
2023-10-30T12:33:40.379Z,94763.84
2023-10-30T12:39:42.081Z,94751.69
2023-10-30T12:45:43.842Z,94736.13
2023-10-30T12:51:45.603Z,94741.16
2023-10-30T12:57:47.189Z,94731.41
2023-10-30T13:03:49.061Z,94725.75
2023-10-30T13:09:51.091Z,94718.22
2023-10-30T13:15:52.691Z,94720.09
2023-10-30T13:21:54.410Z,94721.47
2023-10-30T13:27:56.121Z,94728.09
2023-10-30T13:33:57.870Z,94722.91
2023-10-30T13:39:59.544Z,94687.19
2023-10-30T13:46:01.203Z,94673.91
2023-10-30T13:52:03.263Z,94659.97
2023-10-30T13:58:04.974Z,94628.63
2023-10-30T14:04:06.693Z,94644.41
2023-10-30T14:10:09.021Z,94638.56
2023-10-30T14:16:10.974Z,94644.41
2023-10-30T14:22:12.899Z,94638.25
2023-10-30T14:28:15.079Z,94637.91
2023-10-30T14:34:16.663Z,94635.00
2023-10-30T14:40:18.273Z,94608.41
2023-10-30T14:46:19.913Z,94636.31
2023-10-30T14:52:21.563Z,94642.13
2023-10-30T14:58:23.471Z,94601.59
2023-10-30T15:04:25.168Z,94618.44
2023-10-30T15:10:28.625Z,94604.00
2023-10-30T15:16:30.320Z,94590.03
2023-10-30T15:22:32.088Z,94569.63
2023-10-30T15:28:33.719Z,94559.22
2023-10-30T15:34:35.359Z,94554.69
2023-10-30T15:40:37.030Z,94554.50
2023-10-30T15:46:49.709Z,94544.47
2023-10-30T15:58:59.033Z,94511.41
2023-10-30T16:05:02.924Z,94501.69
2023-10-30T16:23:14.238Z,94488.06
2023-10-30T16:29:16.368Z,94460.53
2023-10-30T16:35:17.958Z,94458.91
2023-10-30T16:41:20.822Z,94438.53
2023-10-30T16:47:22.485Z,94434.94
2023-10-30T16:53:24.932Z,94418.59
2023-10-30T16:59:26.612Z,94412.09
2023-10-30T17:05:28.216Z,94415.81
2023-10-30T17:11:30.738Z,94416.66
2023-10-30T17:17:32.322Z,94413.06
2023-10-30T17:23:34.092Z,94404.34
2023-10-30T17:29:35.662Z,94379.22
2023-10-30T17:35:37.230Z,94364.19
2023-10-30T17:41:38.825Z,94353.97
2023-10-30T17:47:40.491Z,94329.84
2023-10-30T17:53:43.977Z,94314.16
2023-10-30T17:59:45.668Z,94293.78
2023-10-30T18:05:47.337Z,94284.06
2023-10-30T18:11:49.222Z,94282.41
2023-10-30T18:17:51.413Z,94256.53
2023-10-30T18:23:53.226Z,94245.44
2023-10-30T18:29:55.121Z,94237.34
2023-10-30T18:35:56.853Z,94219.63
2023-10-30T18:41:58.523Z,94218.50
2023-10-30T18:48:00.137Z,94229.00
2023-10-30T18:54:02.280Z,94226.91
2023-10-30T19:00:05.235Z,94208.59
2023-10-30T19:06:06.820Z,94204.75
2023-10-30T19:12:08.849Z,94200.22
2023-10-30T19:18:14.861Z,94199.63
2023-10-30T19:24:19.255Z,94220.38
2023-10-30T19:30:22.934Z,94240.91
2023-10-30T19:36:24.605Z,94265.22
2023-10-30T19:42:26.181Z,94295.34
2023-10-30T19:48:27.797Z,94326.41
2023-10-30T19:54:29.418Z,94341.47
2023-10-30T20:00:31.919Z,94339.09
2023-10-30T20:06:36.128Z,94371.81
2023-10-30T20:12:41.379Z,94380.19
2023-10-30T20:18:45.307Z,94386.69
2023-10-30T20:24:47.546Z,94409.00
2023-10-30T20:30:49.169Z,94431.19
2023-10-30T20:36:51.349Z,94447.22
2023-10-30T20:42:54.239Z,94464.50
2023-10-30T20:48:58.873Z,94473.38
2023-10-30T20:55:00.504Z,94476.91
2023-10-30T21:01:02.218Z,94494.31
2023-10-30T21:07:04.622Z,94506.78
2023-10-30T21:13:06.254Z,94498.13
2023-10-30T21:19:07.817Z,94514.56
2023-10-30T21:25:09.688Z,94519.72
2023-10-30T21:31:11.289Z,94515.50
2023-10-30T21:37:12.978Z,94524.81
2023-10-30T21:43:14.617Z,94536.75
2023-10-30T21:49:18.093Z,94525.25
2023-10-30T21:55:20.269Z,94534.66
2023-10-30T22:01:23.193Z,94529.78
2023-10-30T22:07:25.053Z,94534.25
2023-10-30T22:13:27.856Z,94547.47
2023-10-30T22:19:29.513Z,94554.28
2023-10-30T22:25:31.172Z,94560.75
2023-10-30T22:31:33.045Z,94565.13
2023-10-30T22:37:34.954Z,94588.25
2023-10-30T22:43:36.606Z,94597.09
2023-10-30T22:49:38.283Z,94601.28
2023-10-30T22:55:39.945Z,94605.56
2023-10-30T23:01:41.632Z,94606.06
2023-10-30T23:07:43.349Z,94607.09
2023-10-30T23:13:45.163Z,94603.06
2023-10-30T23:19:46.778Z,94603.69
2023-10-30T23:25:48.490Z,94628.47
2023-10-30T23:31:50.134Z,94635.69
2023-10-30T23:37:53.989Z,94647.41
2023-10-30T23:43:57.166Z,94647.13
2023-10-30T23:49:58.837Z,94650.19
2023-10-30T23:56:00.491Z,94641.25
